createdAt,value
2023-05-15T00:00:29.826Z,1130.00
2023-05-15T00:01:29.827Z,1132.00
2023-05-15T00:02:29.900Z,1100.00
2023-05-15T00:03:29.925Z,1120.00
2023-05-15T00:04:29.874Z,1115.00
2023-05-15T00:05:29.834Z,1118.00
2023-05-15T00:06:29.866Z,1123.00
2023-05-15T00:07:29.867Z,1140.00
2023-05-15T00:08:29.916Z,1130.00
2023-05-15T00:09:29.884Z,1142.00
2023-05-15T00:10:29.882Z,1127.00
2023-05-15T00:11:29.940Z,1129.00
2023-05-15T00:12:29.953Z,1131.00
2023-05-15T00:13:29.968Z,1116.00
2023-05-15T00:14:29.965Z,1117.00
2023-05-15T00:15:30.014Z,1129.00
2023-05-15T00:16:30.003Z,1120.00
2023-05-15T00:17:30.085Z,1116.00
2023-05-15T00:18:30.075Z,1123.00
2023-05-15T00:19:30.158Z,1129.00
2023-05-15T00:20:30.071Z,1123.00
2023-05-15T00:21:30.123Z,1129.00
2023-05-15T00:22:30.114Z,1114.00
2023-05-15T00:23:30.124Z,1132.00
2023-05-15T00:24:30.145Z,1135.00
2023-05-15T00:25:30.150Z,1130.00
2023-05-15T00:26:30.147Z,1136.00
2023-05-15T00:27:30.214Z,1127.00
2023-05-15T00:28:30.223Z,1135.00
2023-05-15T00:29:30.228Z,1123.00
2023-05-15T00:30:30.241Z,1125.00
2023-05-15T00:31:30.246Z,1135.00
2023-05-15T00:32:30.277Z,1120.00
2023-05-15T00:33:30.224Z,1116.00
2023-05-15T00:34:30.266Z,1129.00
2023-05-15T00:35:30.282Z,1124.00
2023-05-15T00:36:30.280Z,1131.00
2023-05-15T00:37:30.318Z,1122.00
2023-05-15T00:38:30.316Z,1130.00
2023-05-15T00:39:30.343Z,1133.00
2023-05-15T00:40:30.396Z,1125.00
2023-05-15T00:41:30.362Z,1121.00
2023-05-15T00:42:30.371Z,1130.00
2023-05-15T00:43:30.406Z,1124.00
2023-05-15T00:44:30.433Z,1131.00
2023-05-15T00:45:30.436Z,1125.00
2023-05-15T00:46:30.460Z,1107.00
2023-05-15T00:47:30.474Z,1115.00
2023-05-15T00:48:30.463Z,1116.00
2023-05-15T00:49:30.476Z,1119.00
2023-05-15T00:50:30.466Z,1122.00
2023-05-15T00:51:30.520Z,1116.00
2023-05-15T00:52:30.558Z,1138.00
2023-05-15T00:53:30.631Z,1123.00
2023-05-15T00:54:30.552Z,1120.00
2023-05-15T00:55:30.617Z,1103.00
2023-05-15T00:56:30.654Z,1134.00
2023-05-15T00:57:30.654Z,1134.00
2023-05-15T00:58:30.686Z,1115.00
2023-05-15T00:59:30.691Z,1105.00
2023-05-15T01:00:30.693Z,1120.00
2023-05-15T01:01:30.767Z,1118.00
2023-05-15T01:02:30.826Z,1125.00
2023-05-15T01:03:30.817Z,1117.00
2023-05-15T01:04:30.782Z,1123.00
2023-05-15T01:05:30.783Z,1116.00
2023-05-15T01:06:30.843Z,1122.00
2023-05-15T01:07:30.909Z,1129.00
2023-05-15T01:08:30.854Z,1129.00
2023-05-15T01:09:30.917Z,1138.00
2023-05-15T01:10:30.906Z,1122.00
2023-05-15T01:11:30.933Z,1130.00
2023-05-15T01:12:30.982Z,1127.00
2023-05-15T01:13:30.956Z,1121.00
2023-05-15T01:14:30.957Z,1126.00
2023-05-15T01:15:30.970Z,1125.00
2023-05-15T01:16:30.994Z,1119.00
2023-05-15T01:17:31.045Z,1127.00
2023-05-15T01:18:31.055Z,1133.00
2023-05-15T01:19:31.166Z,1122.00
2023-05-15T01:20:31.039Z,1118.00
2023-05-15T01:21:31.070Z,1136.00
2023-05-15T01:22:31.080Z,1122.00
2023-05-15T01:23:31.140Z,1127.00
2023-05-15T01:24:31.116Z,1144.00
2023-05-15T01:25:31.171Z,1136.00
2023-05-15T01:26:31.178Z,1124.00
2023-05-15T01:27:31.189Z,1122.00
2023-05-15T01:28:31.192Z,1135.00
2023-05-15T01:29:31.241Z,1136.00
2023-05-15T01:30:31.196Z,1123.00
2023-05-15T01:31:31.231Z,1124.00
2023-05-15T01:32:31.315Z,1129.00
2023-05-15T01:33:31.279Z,1117.00
2023-05-15T01:34:31.302Z,1122.00
2023-05-15T01:35:31.319Z,1129.00
2023-05-15T01:36:31.420Z,1131.00
2023-05-15T01:37:31.327Z,1128.00
2023-05-15T01:38:31.369Z,1121.00
2023-05-15T01:39:31.358Z,1136.00
2023-05-15T01:40:31.361Z,1132.00
2023-05-15T01:41:31.461Z,1122.00
2023-05-15T01:42:31.453Z,1126.00
2023-05-15T01:43:31.509Z,1131.00
2023-05-15T01:44:31.473Z,1124.00
2023-05-15T01:45:31.476Z,1125.00
2023-05-15T01:46:31.616Z,1121.00
2023-05-15T01:47:31.522Z,1130.00
2023-05-15T01:48:31.536Z,1125.00
2023-05-15T01:49:31.548Z,1136.00
2023-05-15T01:50:31.521Z,1133.00
2023-05-15T01:51:31.553Z,1128.00
2023-05-15T01:52:31.590Z,1129.00
2023-05-15T01:53:31.585Z,1131.00
2023-05-15T01:54:31.599Z,1114.00
2023-05-15T01:55:31.715Z,1129.00
2023-05-15T01:56:31.647Z,1125.00
2023-05-15T01:57:31.658Z,1139.00
2023-05-15T01:58:31.663Z,1121.00
2023-05-15T01:59:31.681Z,1128.00
2023-05-15T02:00:31.719Z,1136.00
2023-05-15T02:01:31.743Z,1117.00
2023-05-15T02:02:31.849Z,1121.00
2023-05-15T02:03:31.927Z,1128.00
2023-05-15T02:04:31.806Z,1127.00
2023-05-15T02:05:31.808Z,1137.00
2023-05-15T02:06:31.828Z,1120.00
2023-05-15T02:07:31.818Z,1119.00
2023-05-15T02:08:31.848Z,1119.00
2023-05-15T02:09:31.876Z,1146.00
2023-05-15T02:10:31.873Z,1141.00
2023-05-15T02:11:31.898Z,1139.00
2023-05-15T02:12:31.906Z,1131.00
2023-05-15T02:13:31.945Z,1120.00
2023-05-15T02:14:31.936Z,1142.00
2023-05-15T02:15:32.043Z,1119.00
2023-05-15T02:16:32.071Z,1121.00
2023-05-15T02:17:32.017Z,1138.00
2023-05-15T02:18:32.063Z,1136.00
2023-05-15T02:19:32.028Z,1134.00
2023-05-15T02:20:32.075Z,1138.00
2023-05-15T02:21:32.157Z,1133.00
2023-05-15T02:22:32.123Z,1132.00
2023-05-15T02:23:32.134Z,1130.00
2023-05-15T02:24:32.137Z,1136.00
2023-05-15T02:25:32.160Z,1133.00
2023-05-15T02:26:32.209Z,1129.00
2023-05-15T02:27:32.206Z,1128.00
2023-05-15T02:28:32.236Z,1144.00
2023-05-15T02:29:32.276Z,1135.00
2023-05-15T02:30:32.311Z,1143.00
2023-05-15T02:31:32.325Z,1150.00
2023-05-15T02:32:32.329Z,1130.00
2023-05-15T02:33:32.326Z,1135.00
2023-05-15T02:34:32.362Z,1133.00
2023-05-15T02:35:32.434Z,1131.00
2023-05-15T02:36:32.383Z,1127.00
2023-05-15T02:37:32.434Z,1143.00
2023-05-15T02:38:32.404Z,1139.00
2023-05-15T02:39:32.446Z,1125.00
2023-05-15T02:40:32.484Z,1144.00
2023-05-15T02:41:32.489Z,1131.00
2023-05-15T02:42:32.498Z,1137.00
2023-05-15T02:43:32.556Z,1137.00
2023-05-15T02:44:32.534Z,1138.00
2023-05-15T02:45:32.637Z,1130.00
2023-05-15T02:46:32.605Z,1127.00
2023-05-15T02:47:32.619Z,1140.00
2023-05-15T02:48:32.621Z,1143.00
2023-05-15T02:49:32.692Z,1138.00
2023-05-15T02:50:32.672Z,1135.00
2023-05-15T02:51:32.665Z,1130.00
2023-05-15T02:52:32.738Z,1136.00
2023-05-15T02:53:32.741Z,1128.00
2023-05-15T02:54:32.825Z,1136.00
2023-05-15T02:55:32.797Z,1136.00
2023-05-15T02:56:32.819Z,1137.00
2023-05-15T02:57:32.878Z,1135.00
2023-05-15T02:58:32.898Z,1138.00
2023-05-15T02:59:33.007Z,1128.00
2023-05-15T03:00:32.974Z,1128.00
2023-05-15T03:01:32.989Z,1142.00
2023-05-15T03:02:33.023Z,1140.00
2023-05-15T03:03:33.000Z,1129.00
2023-05-15T03:04:33.079Z,1127.00
2023-05-15T03:05:33.053Z,1142.00
2023-05-15T03:06:33.099Z,1136.00
2023-05-15T03:07:33.129Z,1127.00
2023-05-15T03:08:33.084Z,1142.00
2023-05-15T03:09:33.111Z,1130.00
2023-05-15T03:10:33.167Z,1136.00
2023-05-15T03:11:33.178Z,1140.00
2023-05-15T03:12:33.191Z,1145.00
2023-05-15T03:13:33.199Z,1131.00
2023-05-15T03:14:33.222Z,1132.00
2023-05-15T03:15:33.312Z,1125.00
2023-05-15T03:16:33.364Z,1140.00
2023-05-15T03:17:33.323Z,1136.00
2023-05-15T03:18:33.352Z,1143.00
2023-05-15T03:19:33.411Z,1139.00
2023-05-15T03:20:33.375Z,1143.00
2023-05-15T03:21:33.485Z,1142.00
2023-05-15T03:22:33.421Z,1126.00
2023-05-15T03:23:34.598Z,1132.00
2023-05-15T03:24:33.474Z,1152.00
2023-05-15T03:25:33.548Z,1138.00
2023-05-15T03:26:33.537Z,1143.00
2023-05-15T03:27:33.602Z,1146.00
2023-05-15T03:28:33.619Z,1152.00
2023-05-15T03:29:33.624Z,1139.00
2023-05-15T03:30:33.629Z,1153.00
2023-05-15T03:31:33.686Z,1152.00
2023-05-15T03:32:33.707Z,1141.00
2023-05-15T03:33:33.713Z,1130.00
2023-05-15T03:34:33.709Z,1145.00
2023-05-15T03:35:33.748Z,1146.00
2023-05-15T03:36:33.753Z,1129.00
2023-05-15T03:37:33.804Z,1133.00
2023-05-15T03:38:33.849Z,1146.00
2023-05-15T03:39:33.890Z,1138.00
2023-05-15T03:40:33.902Z,1141.00
2023-05-15T03:41:33.910Z,1140.00
2023-05-15T03:42:33.947Z,1139.00
2023-05-15T03:43:33.938Z,1133.00
2023-05-15T03:44:34.000Z,1129.00
2023-05-15T03:45:34.002Z,1133.00
2023-05-15T03:46:34.145Z,1138.00
2023-05-15T03:47:34.169Z,1135.00
2023-05-15T03:48:34.076Z,1140.00
2023-05-15T03:49:34.123Z,1147.00
2023-05-15T03:50:34.132Z,1138.00
2023-05-15T03:51:34.170Z,1131.00
2023-05-15T03:52:34.176Z,1134.00
2023-05-15T03:53:34.253Z,1129.00
2023-05-15T03:54:34.251Z,1128.00
2023-05-15T03:55:34.314Z,1144.00
2023-05-15T03:56:34.317Z,1136.00
2023-05-15T03:57:34.327Z,1147.00
2023-05-15T03:58:34.367Z,1126.00
2023-05-15T03:59:34.370Z,1132.00
2023-05-15T04:00:34.407Z,1140.00
2023-05-15T04:01:39.304Z,1132.00
2023-05-15T04:02:35.544Z,1133.00
2023-05-15T04:03:34.451Z,1134.00
2023-05-15T04:04:34.427Z,1141.00
2023-05-15T04:05:34.492Z,1139.00
2023-05-15T04:06:34.385Z,1139.00
2023-05-15T04:07:34.486Z,1139.00
2023-05-15T04:08:34.397Z,1151.00
2023-05-15T04:09:34.355Z,1145.00
2023-05-15T04:10:34.362Z,1138.00
2023-05-15T04:11:34.388Z,1133.00
2023-05-15T04:12:34.396Z,1148.00
2023-05-15T04:13:34.329Z,1140.00
2023-05-15T04:14:34.337Z,1140.00
2023-05-15T04:15:34.338Z,1139.00
2023-05-15T04:16:34.345Z,1136.00
2023-05-15T04:17:34.318Z,1138.00
2023-05-15T04:18:34.377Z,1131.00
2023-05-15T04:19:34.374Z,1147.00
2023-05-15T04:20:34.342Z,1141.00
2023-05-15T04:21:34.404Z,1129.00
2023-05-15T04:22:34.413Z,1130.00
2023-05-15T04:23:34.430Z,1144.00
2023-05-15T04:24:34.499Z,1121.00
2023-05-15T04:25:34.512Z,1138.00
2023-05-15T04:26:34.526Z,1122.00
2023-05-15T04:27:34.597Z,1140.00
2023-05-15T04:28:34.628Z,1125.00
2023-05-15T04:29:34.656Z,1135.00
2023-05-15T04:30:34.647Z,1129.00
2023-05-15T04:31:34.723Z,1109.00
2023-05-15T04:32:34.766Z,1131.00
2023-05-15T04:33:34.781Z,1111.00
2023-05-15T04:34:34.809Z,1107.00
2023-05-15T04:35:34.813Z,1112.00
2023-05-15T04:36:34.876Z,1117.00
2023-05-15T04:37:34.915Z,1119.00
2023-05-15T04:38:34.926Z,1106.00
2023-05-15T04:39:34.981Z,1104.00
2023-05-15T04:40:34.993Z,1119.00
2023-05-15T04:41:34.982Z,1112.00
2023-05-15T04:42:35.027Z,1092.00
2023-05-15T04:43:35.051Z,1109.00
2023-05-15T04:44:35.113Z,1104.00
2023-05-15T04:45:35.160Z,1098.00
2023-05-15T04:46:35.232Z,1106.00
2023-05-15T04:47:35.235Z,1107.00
2023-05-15T04:48:35.261Z,1095.00
2023-05-15T04:49:35.264Z,1106.00
2023-05-15T04:50:35.264Z,1089.00
2023-05-15T04:51:35.325Z,1102.00
2023-05-15T04:53:51.160Z,500.00
2023-05-15T04:54:51.094Z,500.00
2023-05-15T04:55:51.116Z,500.00
2023-05-15T04:56:51.104Z,500.00
2023-05-15T04:57:51.063Z,500.00
2023-05-15T04:58:51.076Z,502.00
2023-05-15T04:59:51.058Z,500.00
2023-05-15T05:00:51.102Z,506.00
2023-05-15T05:01:51.076Z,500.00
2023-05-15T05:02:51.096Z,503.00
2023-05-15T05:03:51.126Z,505.00
2023-05-15T05:04:51.049Z,509.00
2023-05-15T05:05:51.029Z,508.00
2023-05-15T05:06:51.003Z,501.00
2023-05-15T05:07:51.046Z,497.00
2023-05-15T05:08:51.001Z,500.00
2023-05-15T05:09:51.111Z,500.00
2023-05-15T05:10:50.996Z,500.00
2023-05-15T05:11:50.975Z,505.00
2023-05-15T05:12:50.979Z,500.00
2023-05-15T05:13:50.978Z,505.00
2023-05-15T05:14:50.993Z,501.00
2023-05-15T05:15:50.991Z,500.00
2023-05-15T05:16:50.942Z,500.00
2023-05-15T05:17:50.985Z,508.00
2023-05-15T05:18:51.001Z,506.00
2023-05-15T05:19:50.949Z,502.00
2023-05-15T05:20:50.985Z,501.00
2023-05-15T05:21:50.903Z,503.00
2023-05-15T05:22:50.920Z,506.00
2023-05-15T05:23:50.883Z,504.00
2023-05-15T05:24:50.920Z,511.00
2023-05-15T05:25:50.898Z,511.00
2023-05-15T05:26:50.860Z,507.00
2023-05-15T05:27:50.906Z,502.00
2023-05-15T05:28:50.849Z,502.00
2023-05-15T05:29:50.846Z,503.00
2023-05-15T05:30:50.849Z,500.00
2023-05-15T05:31:50.939Z,505.00
2023-05-15T05:32:50.874Z,500.00
2023-05-15T05:33:50.856Z,502.00
2023-05-15T05:34:50.820Z,501.00
2023-05-15T05:35:50.865Z,507.00
2023-05-15T05:36:50.798Z,502.00
2023-05-15T05:37:50.802Z,512.00
2023-05-15T05:38:50.845Z,512.00
2023-05-15T05:39:50.794Z,515.00
2023-05-15T05:40:51.016Z,520.00
2023-05-15T05:41:50.763Z,533.00
2023-05-15T05:42:50.801Z,528.00
2023-05-15T05:43:50.785Z,534.00
2023-05-15T05:44:50.778Z,544.00
2023-05-15T05:45:50.750Z,559.00
2023-05-15T05:46:50.751Z,556.00
2023-05-15T05:47:50.787Z,566.00
2023-05-15T05:48:50.751Z,574.00
2023-05-15T05:49:50.771Z,580.00
2023-05-15T05:50:50.788Z,584.00
2023-05-15T05:51:50.711Z,595.00
2023-05-15T05:52:50.730Z,603.00
2023-05-15T05:53:50.692Z,601.00
2023-05-15T05:54:50.678Z,612.00
2023-05-15T05:55:50.690Z,611.00
2023-05-15T05:56:50.766Z,614.00
2023-05-15T05:57:50.649Z,620.00
2023-05-15T05:58:50.768Z,623.00
2023-05-15T05:59:50.662Z,631.00
2023-05-15T06:00:50.644Z,628.00
2023-05-15T06:01:50.664Z,614.00
2023-05-15T06:02:50.732Z,614.00
2023-05-15T06:03:50.645Z,606.00
2023-05-15T06:04:50.616Z,594.00
2023-05-15T06:05:50.665Z,590.00
2023-05-15T06:06:50.718Z,577.00
2023-05-15T06:07:50.679Z,572.00
2023-05-15T06:08:50.629Z,565.00
2023-05-15T06:09:50.588Z,560.00
2023-05-15T06:10:50.680Z,545.00
2023-05-15T06:11:50.612Z,543.00
2023-05-15T06:12:50.553Z,541.00
2023-05-15T06:13:50.564Z,539.00
2023-05-15T06:14:50.584Z,535.00
2023-05-15T06:15:50.641Z,524.00
2023-05-15T06:16:50.608Z,512.00
2023-05-15T06:17:50.856Z,507.00
2023-05-15T06:18:50.515Z,503.00
2023-05-15T06:19:50.566Z,501.00
2023-05-15T06:20:50.509Z,504.00
2023-05-15T06:21:50.525Z,506.00
2023-05-15T06:22:50.529Z,500.00
2023-05-15T06:23:50.586Z,500.00
2023-05-15T06:24:52.336Z,504.00
2023-05-15T06:25:50.477Z,506.00
2023-05-15T06:26:51.805Z,500.00
2023-05-15T06:27:50.453Z,501.00
2023-05-15T06:28:52.860Z,500.00
2023-05-15T06:29:50.448Z,501.00
2023-05-15T06:30:50.480Z,509.00
2023-05-15T06:31:50.514Z,515.00
2023-05-15T06:32:50.466Z,508.00
2023-05-15T06:33:50.441Z,498.00
2023-05-15T06:34:50.464Z,504.00
2023-05-15T06:35:50.505Z,501.00
2023-05-15T06:36:50.454Z,505.00
2023-05-15T06:37:50.498Z,510.00
2023-05-15T06:38:50.477Z,511.00
2023-05-15T06:39:50.483Z,513.00
2023-05-15T06:40:50.567Z,519.00
2023-05-15T06:41:50.498Z,518.00
2023-05-15T06:42:50.498Z,517.00
2023-05-15T06:43:50.508Z,532.00
2023-05-15T06:44:50.522Z,535.00
2023-05-15T06:45:50.560Z,533.00
2023-05-15T06:46:50.554Z,534.00
2023-05-15T06:47:50.602Z,525.00
2023-05-15T06:48:50.556Z,523.00
2023-05-15T06:49:50.560Z,519.00
2023-05-15T06:50:50.509Z,501.00
2023-05-15T06:51:50.582Z,509.00
2023-05-15T06:52:50.518Z,503.00
2023-05-15T06:53:50.513Z,513.00
2023-05-15T06:54:50.537Z,511.00
2023-05-15T06:55:50.551Z,514.00
2023-05-15T06:56:50.559Z,504.00
2023-05-15T06:57:50.567Z,505.00
2023-05-15T06:58:50.581Z,501.00
2023-05-15T06:59:50.597Z,500.00
2023-05-15T07:00:50.512Z,500.00
2023-05-15T07:01:50.629Z,501.00
2023-05-15T07:02:50.650Z,509.00
2023-05-15T07:03:50.558Z,507.00
2023-05-15T07:04:50.735Z,504.00
2023-05-15T07:05:50.523Z,500.00
2023-05-15T07:06:50.566Z,505.00
2023-05-15T07:07:50.576Z,506.00
2023-05-15T07:08:50.583Z,508.00
2023-05-15T07:09:50.584Z,519.00
2023-05-15T07:10:50.665Z,525.00
2023-05-15T07:11:50.657Z,516.00
2023-05-15T07:12:50.652Z,511.00
2023-05-15T07:13:50.837Z,519.00
2023-05-15T07:14:50.812Z,521.00
2023-05-15T07:15:50.741Z,527.00
2023-05-15T07:16:50.842Z,529.00
2023-05-15T07:17:50.955Z,538.00
2023-05-15T07:18:50.982Z,531.00
2023-05-15T07:19:50.852Z,538.00
2023-05-15T07:20:50.887Z,537.00
2023-05-15T07:21:50.970Z,538.00
2023-05-15T07:22:56.386Z,552.00
2023-05-15T07:23:52.126Z,552.00
2023-05-15T07:24:50.952Z,553.00
2023-05-15T07:25:50.953Z,558.00
2023-05-15T07:27:51.934Z,553.00
2023-05-15T07:28:50.917Z,554.00
2023-05-15T07:29:50.991Z,556.00
2023-05-15T07:30:51.027Z,566.00
2023-05-15T07:31:51.023Z,556.00
2023-05-15T07:32:51.937Z,500.00
2023-05-15T07:33:50.915Z,496.00
2023-05-15T07:34:50.910Z,507.00
2023-05-15T07:35:50.872Z,516.00
2023-05-15T07:36:50.879Z,525.00
2023-05-15T07:37:50.910Z,540.00
2023-05-15T07:38:50.942Z,548.00
2023-05-15T07:39:51.062Z,559.00
2023-05-15T07:40:51.010Z,568.00
2023-05-15T07:41:51.034Z,570.00
2023-05-15T07:42:51.145Z,578.00
2023-05-15T07:43:51.044Z,602.00
2023-05-15T07:44:51.077Z,609.00
2023-05-15T07:45:51.207Z,611.00
2023-05-15T07:46:51.105Z,610.00
2023-05-15T07:47:51.185Z,610.00
2023-05-15T07:48:51.200Z,629.00
2023-05-15T07:49:51.178Z,633.00
2023-05-15T07:50:51.218Z,632.00
2023-05-15T07:51:51.230Z,634.00
2023-05-15T07:52:51.234Z,630.00
2023-05-15T07:53:51.300Z,644.00
2023-05-15T07:54:51.315Z,645.00
2023-05-15T07:55:51.420Z,651.00
2023-05-15T07:56:51.424Z,650.00
2023-05-15T07:57:54.107Z,656.00
2023-05-15T07:58:51.497Z,660.00
2023-05-15T07:59:51.485Z,662.00
2023-05-15T08:00:51.515Z,679.00
2023-05-15T08:01:51.456Z,672.00
2023-05-15T08:02:51.637Z,685.00
2023-05-15T08:03:51.690Z,697.00
2023-05-15T08:04:51.472Z,700.00
2023-05-15T08:05:51.500Z,711.00
2023-05-15T08:06:51.425Z,720.00
2023-05-15T08:07:51.432Z,711.00
2023-05-15T08:08:51.428Z,748.00
2023-05-15T08:09:51.398Z,749.00
2023-05-15T08:10:51.419Z,757.00
2023-05-15T08:11:51.436Z,790.00
2023-05-15T08:12:51.381Z,802.00
2023-05-15T08:13:51.430Z,811.00
2023-05-15T08:14:51.372Z,813.00
2023-05-15T08:15:51.407Z,825.00
2023-05-15T08:16:51.356Z,845.00
2023-05-15T08:17:51.369Z,855.00
2023-05-15T08:18:51.445Z,866.00
2023-05-15T08:19:51.418Z,880.00
2023-05-15T08:20:51.328Z,875.00
2023-05-15T08:21:51.353Z,885.00
2023-05-15T08:22:51.306Z,900.00
2023-05-15T08:23:51.367Z,909.00
2023-05-15T08:24:51.301Z,909.00
2023-05-15T08:25:51.320Z,924.00
2023-05-15T08:26:51.310Z,916.00
2023-05-15T08:27:51.271Z,948.00
2023-05-15T08:28:51.279Z,976.00
2023-05-15T08:29:51.557Z,973.00
2023-05-15T08:30:51.248Z,930.00
2023-05-15T08:31:51.328Z,791.00
2023-05-15T08:32:51.373Z,655.00
2023-05-15T08:33:51.257Z,617.00
2023-05-15T08:34:51.266Z,575.00
2023-05-15T08:35:51.288Z,550.00
2023-05-15T08:36:51.640Z,535.00
2023-05-15T08:37:51.249Z,517.00
2023-05-15T08:38:51.180Z,498.00
2023-05-15T08:39:51.256Z,501.00
2023-05-15T08:40:51.154Z,503.00
2023-05-15T08:41:51.208Z,504.00
2023-05-15T08:42:51.940Z,510.00
2023-05-15T08:43:51.165Z,538.00
2023-05-15T08:44:51.256Z,539.00
2023-05-15T08:45:51.148Z,563.00
2023-05-15T08:46:51.183Z,570.00
2023-05-15T08:47:51.293Z,572.00
2023-05-15T08:48:51.397Z,593.00
2023-05-15T08:49:51.168Z,616.00
2023-05-15T08:50:51.133Z,627.00
2023-05-15T08:51:51.117Z,635.00
2023-05-15T08:52:51.205Z,650.00
2023-05-15T08:53:51.091Z,642.00
2023-05-15T08:54:51.119Z,661.00
2023-05-15T08:55:51.229Z,707.00
2023-05-15T08:56:51.111Z,719.00
2023-05-15T08:57:51.134Z,740.00
2023-05-15T08:58:51.245Z,797.00
2023-05-15T08:59:51.263Z,825.00
2023-05-15T09:00:51.375Z,856.00
2023-05-15T09:01:51.386Z,879.00
2023-05-15T09:02:51.515Z,882.00
2023-05-15T09:03:51.493Z,883.00
2023-05-15T09:04:51.530Z,899.00
2023-05-15T09:05:51.525Z,928.00
2023-05-15T09:06:51.583Z,942.00
2023-05-15T09:07:51.588Z,974.00
2023-05-15T09:08:51.648Z,976.00
2023-05-15T09:09:51.965Z,1020.00
2023-05-15T09:10:51.718Z,1047.00
2023-05-15T09:11:51.933Z,1072.00
2023-05-15T09:12:51.749Z,1101.00
2023-05-15T09:13:51.755Z,1112.00
2023-05-15T09:14:51.752Z,1125.00
2023-05-15T09:15:51.796Z,1142.00
2023-05-15T09:16:51.820Z,1166.00
2023-05-15T09:17:51.869Z,1190.00
2023-05-15T09:18:51.821Z,1205.00
2023-05-15T09:19:51.756Z,1225.00
2023-05-15T09:20:52.358Z,1244.00
2023-05-15T09:21:51.834Z,1256.00
2023-05-15T09:22:51.752Z,1269.00
2023-05-15T09:23:51.814Z,1279.00
2023-05-15T09:24:51.769Z,1296.00
2023-05-15T09:25:51.837Z,1320.00
2023-05-15T09:26:51.773Z,1330.00
2023-05-15T09:27:51.783Z,1357.00
2023-05-15T09:28:51.785Z,1333.00
2023-05-15T09:29:51.904Z,1370.00
2023-05-15T09:30:51.907Z,1377.00
2023-05-15T09:31:52.040Z,1396.00
2023-05-15T09:32:52.242Z,1466.00
2023-05-15T09:33:52.036Z,1489.00
2023-05-15T09:34:52.090Z,1494.00
2023-05-15T09:35:52.244Z,1390.00
2023-05-15T09:36:52.248Z,1289.00
2023-05-15T09:37:52.167Z,1200.00
2023-05-15T09:38:52.194Z,1181.00
2023-05-15T09:39:52.185Z,1222.00
2023-05-15T09:40:52.180Z,1286.00
2023-05-15T09:41:52.236Z,1269.00
2023-05-15T09:42:52.207Z,1249.00
2023-05-15T09:43:52.381Z,1261.00
2023-05-15T09:44:52.269Z,1268.00
2023-05-15T09:45:52.481Z,1266.00
2023-05-15T09:46:52.310Z,1272.00
2023-05-15T09:47:52.301Z,1272.00
2023-05-15T09:48:52.330Z,1285.00
2023-05-15T09:49:52.351Z,1273.00
2023-05-15T09:50:52.303Z,1292.00
2023-05-15T09:51:52.350Z,1287.00
2023-05-15T09:52:52.328Z,1301.00
2023-05-15T09:53:52.336Z,1314.00
2023-05-15T09:54:52.348Z,1208.00
2023-05-15T09:55:52.322Z,1099.00
2023-05-15T09:56:52.410Z,1088.00
2023-05-15T09:57:52.459Z,1052.00
2023-05-15T09:58:52.404Z,1025.00
2023-05-15T09:59:52.491Z,1038.00
2023-05-15T10:00:52.473Z,1045.00
2023-05-15T10:01:52.509Z,1032.00
2023-05-15T10:02:52.710Z,1020.00
2023-05-15T10:03:52.546Z,1011.00
2023-05-15T10:04:52.716Z,1005.00
2023-05-15T10:05:52.688Z,993.00
2023-05-15T10:06:52.557Z,1003.00
2023-05-15T10:07:52.565Z,999.00
2023-05-15T10:08:52.559Z,1014.00
2023-05-15T10:09:52.568Z,1010.00
2023-05-15T10:10:52.559Z,1022.00
2023-05-15T10:11:52.554Z,1021.00
2023-05-15T10:12:52.592Z,1042.00
2023-05-15T10:13:52.706Z,1049.00
2023-05-15T10:14:52.693Z,1039.00
2023-05-15T10:15:52.821Z,1054.00
2023-05-15T10:16:52.794Z,1074.00
2023-05-15T10:17:52.923Z,1077.00
2023-05-15T10:18:52.865Z,1063.00
2023-05-15T10:19:58.345Z,1070.00
2023-05-15T10:20:53.984Z,1072.00
2023-05-15T10:21:52.903Z,1073.00
2023-05-15T10:22:52.933Z,1078.00
2023-05-15T10:23:52.950Z,1071.00
2023-05-15T10:24:52.894Z,1086.00
2023-05-15T10:25:52.930Z,1018.00
2023-05-15T10:26:52.964Z,938.00
2023-05-15T10:27:52.903Z,847.00
2023-05-15T10:28:52.885Z,859.00
2023-05-15T10:29:52.885Z,822.00
2023-05-15T10:30:53.440Z,755.00
2023-05-15T10:31:52.973Z,676.00
2023-05-15T10:32:52.916Z,726.00
2023-05-15T10:33:52.927Z,776.00
2023-05-15T10:34:53.078Z,812.00
2023-05-15T10:35:52.905Z,823.00
2023-05-15T10:36:52.956Z,828.00
2023-05-15T10:37:52.938Z,819.00
2023-05-15T10:38:52.944Z,823.00
2023-05-15T10:39:52.990Z,824.00
2023-05-15T10:40:59.838Z,844.00
2023-05-15T10:41:53.934Z,845.00
2023-05-15T10:42:52.918Z,848.00
2023-05-15T10:43:52.918Z,853.00
2023-05-15T10:44:52.914Z,848.00
2023-05-15T10:45:52.927Z,883.00
2023-05-15T10:46:52.950Z,915.00
2023-05-15T10:47:53.050Z,915.00
2023-05-15T10:48:52.877Z,934.00
2023-05-15T10:49:52.953Z,933.00
2023-05-15T10:50:52.867Z,962.00
2023-05-15T10:51:52.918Z,984.00
2023-05-15T10:52:53.000Z,985.00
2023-05-15T10:53:53.054Z,1002.00
2023-05-15T10:54:53.198Z,1013.00
2023-05-15T10:55:53.178Z,1025.00
2023-05-15T10:56:53.203Z,1052.00
2023-05-15T10:57:53.265Z,1069.00
2023-05-15T10:58:53.293Z,1073.00
2023-05-15T10:59:53.390Z,1081.00
2023-05-15T11:00:53.419Z,1105.00
2023-05-15T11:01:53.435Z,1115.00
2023-05-15T11:02:53.610Z,1117.00
2023-05-15T11:03:55.241Z,1140.00
2023-05-15T11:04:53.575Z,1153.00
2023-05-15T11:05:53.627Z,1163.00
2023-05-15T11:06:53.681Z,1176.00
2023-05-15T11:07:53.883Z,1185.00
2023-05-15T11:08:53.847Z,1211.00
2023-05-15T11:09:53.823Z,1218.00
2023-05-15T11:10:53.894Z,1238.00
2023-05-15T11:11:53.922Z,1287.00
2023-05-15T11:12:54.004Z,1460.00
2023-05-15T11:13:53.980Z,1507.00
2023-05-15T11:14:54.057Z,1537.00
2023-05-15T11:15:54.147Z,1557.00
2023-05-15T11:16:54.201Z,1583.00
2023-05-15T11:17:54.204Z,1592.00
2023-05-15T11:18:54.301Z,1598.00
2023-05-15T11:19:54.248Z,1613.00
2023-05-15T11:20:54.277Z,1608.00
2023-05-15T11:21:54.350Z,1627.00
2023-05-15T11:22:54.352Z,1620.00
2023-05-15T11:23:54.416Z,1618.00
2023-05-15T11:24:54.504Z,1613.00
2023-05-15T11:25:54.461Z,1581.00
2023-05-15T11:26:54.531Z,1576.00
2023-05-15T11:27:54.578Z,1569.00
2023-05-15T11:28:54.616Z,1561.00
2023-05-15T11:29:54.697Z,1561.00
2023-05-15T11:30:54.774Z,1544.00
2023-05-15T11:31:54.813Z,1530.00
2023-05-15T11:32:54.987Z,1518.00
2023-05-15T11:33:54.989Z,1509.00
2023-05-15T11:34:54.997Z,1496.00
2023-05-15T11:35:55.062Z,1494.00
2023-05-15T11:36:55.122Z,1481.00
2023-05-15T11:37:55.162Z,1469.00
2023-05-15T11:38:55.294Z,1464.00
2023-05-15T11:39:55.297Z,1452.00
2023-05-15T11:40:55.415Z,1421.00
2023-05-15T11:41:55.415Z,1414.00
2023-05-15T11:42:55.507Z,1407.00
2023-05-15T11:43:55.529Z,1399.00
2023-05-15T11:44:55.587Z,1392.00
2023-05-15T11:45:55.657Z,1377.00
2023-05-15T11:46:55.825Z,1360.00
2023-05-15T11:47:55.855Z,1337.00
2023-05-15T11:48:56.246Z,1340.00
2023-05-15T11:49:55.849Z,1327.00
2023-05-15T11:50:55.888Z,1313.00
2023-05-15T11:51:55.955Z,1307.00
2023-05-15T11:52:56.007Z,1296.00
2023-05-15T11:53:56.049Z,1295.00
2023-05-15T11:54:56.093Z,1274.00
2023-05-15T11:55:56.137Z,1266.00
2023-05-15T11:56:56.138Z,1260.00
2023-05-15T11:57:56.152Z,1255.00
2023-05-15T11:58:56.203Z,1246.00
2023-05-15T11:59:56.231Z,1242.00
2023-05-15T12:00:56.314Z,1240.00
2023-05-15T12:01:56.228Z,1222.00
2023-05-15T12:02:56.302Z,1223.00
2023-05-15T12:03:56.546Z,1197.00
2023-05-15T12:04:56.336Z,1198.00
2023-05-15T12:05:59.516Z,1202.00
2023-05-15T12:06:56.241Z,1202.00
2023-05-15T12:07:56.252Z,1163.00
2023-05-15T12:08:56.264Z,1111.00
2023-05-15T12:09:56.259Z,943.00
2023-05-15T12:10:56.247Z,796.00
2023-05-15T12:11:56.259Z,741.00
2023-05-15T12:12:56.323Z,689.00
2023-05-15T12:13:56.258Z,665.00
2023-05-15T12:14:56.274Z,619.00
2023-05-15T12:15:56.300Z,612.00
2023-05-15T12:16:56.253Z,590.00